Time;durP1;ratioP1;P1;durP2;ratioP2;P2;SDS_P1;SDS_P2;PMS_P1;PMS_P2;Temp;Humidity;BMP_temperature;BMP_pressure;BME280_temperature;BME280_humidity;BME280_pressure;Samples;Min_cycle;Max_cycle;Signal;HPM_P1;HPM_P2
2023/03/11 00:02:06;;;;;;;22.95;13.65;;;7.40;99.90;;;;;;5052926;28;20047;-81
2023/03/11 00:04:31;;;;;;;18.13;10.80;;;7.30;99.90;;;;;;5052785;28;20021;-81
2023/03/11 00:06:57;;;;;;;19.05;12.30;;;7.30;99.90;;;;;;5051488;28;20433;-81
2023/03/11 00:09:23;;;;;;;16.48;10.02;;;7.20;99.90;;;;;;5053106;28;20032;-81
2023/03/11 00:11:48;;;;;;;22.73;11.60;;;7.20;99.90;;;;;;5051797;28;20383;-81
2023/03/11 00:14:14;;;;;;;23.20;11.75;;;7.20;99.90;;;;;;5052733;28;20025;-81
2023/03/11 00:16:40;;;;;;;22.45;12.63;;;7.10;99.90;;;;;;5052679;28;20059;-80
2023/03/11 00:19:05;;;;;;;19.98;11.63;;;7.10;99.90;;;;;;5051887;28;20086;-80
2023/03/11 00:21:31;;;;;;;22.75;12.77;;;7.00;99.90;;;;;;5052705;28;20474;-80
2023/03/11 00:23:59;;;;;;;19.75;11.80;;;7.00;99.90;;;;;;5051456;28;20069;-80
2023/03/11 00:26:26;;;;;;;19.63;11.43;;;7.00;99.90;;;;;;5051583;28;20470;-81
2023/03/11 00:28:51;;;;;;;18.75;11.75;;;7.00;99.90;;;;;;5051563;28;20064;-80
2023/03/11 00:31:17;;;;;;;21.77;12.10;;;7.00;99.90;;;;;;5052683;28;20427;-80
2023/03/11 00:33:43;;;;;;;22.75;12.60;;;6.90;99.90;;;;;;5053232;28;20025;-80
2023/03/11 00:36:23;;;;;;;24.05;12.95;;;6.90;99.90;;;;;;5056428;28;20108;-80
2023/03/11 00:38:49;;;;;;;22.45;11.50;;;6.90;99.90;;;;;;5056466;28;20036;-80
2023/03/11 00:41:15;;;;;;;24.42;12.93;;;6.80;99.90;;;;;;5056706;28;20027;-80
2023/03/11 00:43:40;;;;;;;24.10;12.65;;;6.80;99.90;;;;;;5054979;28;20104;-80
2023/03/11 00:46:06;;;;;;;23.95;13.07;;;6.80;99.90;;;;;;5054974;28;20505;-80
2023/03/11 00:48:31;;;;;;;27.10;13.27;;;6.80;99.90;;;;;;5056087;28;20044;-80
2023/03/11 00:50:57;;;;;;;21.58;13.35;;;6.80;99.90;;;;;;5056087;28;20021;-81
2023/03/11 00:53:23;;;;;;;25.05;13.35;;;6.80;99.90;;;;;;5055271;28;20082;-81
2023/03/11 00:55:48;;;;;;;23.85;13.00;;;6.80;99.90;;;;;;5054612;28;20387;-81
2023/03/11 00:58:14;;;;;;;22.73;12.00;;;6.80;99.90;;;;;;5054963;28;20013;-80
2023/03/11 01:00:40;;;;;;;23.02;11.65;;;6.90;99.90;;;;;;5055751;28;20082;-80
2023/03/11 01:03:05;;;;;;;22.48;12.63;;;6.90;99.90;;;;;;5054697;28;20013;-79
2023/03/11 01:05:32;;;;;;;20.65;11.43;;;6.90;99.90;;;;;;5055761;28;20108;-80
2023/03/11 01:07:59;;;;;;;19.50;12.77;;;6.90;99.90;;;;;;5054740;28;20029;-79
2023/03/11 01:10:25;;;;;;;22.52;12.38;;;7.00;99.90;;;;;;5054394;28;20025;-80
2023/03/11 01:12:51;;;;;;;28.02;12.98;;;7.00;99.90;;;;;;5054209;28;20425;-80
2023/03/11 01:15:28;;;;;;;22.48;12.30;;;7.00;99.90;;;;;;5054603;28;20042;-80
2023/03/11 01:17:53;;;;;;;19.05;12.55;;;7.00;99.90;;;;;;5055529;28;20028;-80
2023/03/11 01:20:20;;;;;;;25.52;14.30;;;7.10;99.90;;;;;;5054235;28;20506;-80
2023/03/11 01:22:45;;;;;;;22.98;12.80;;;7.10;99.90;;;;;;5054196;28;20031;-81
2023/03/11 01:25:16;;;;;;;22.80;13.60;;;7.10;99.90;;;;;;5054107;28;20020;-80
2023/03/11 01:27:42;;;;;;;28.40;15.38;;;7.10;99.90;;;;;;5054267;28;20124;-80
2023/03/11 01:30:20;;;;;;;22.90;13.80;;;7.20;99.90;;;;;;5055290;28;20020;-80
2023/03/11 01:32:45;;;;;;;20.85;12.90;;;7.20;99.90;;;;;;5055194;28;20120;-82
2023/03/11 01:35:13;;;;;;;22.98;13.70;;;7.20;99.90;;;;;;5054389;28;20116;-80
2023/03/11 01:37:39;;;;;;;18.27;12.30;;;7.20;99.90;;;;;;5055344;28;20025;-80
2023/03/11 01:40:07;;;;;;;22.58;13.10;;;7.20;99.90;;;;;;5054205;28;20071;-81
2023/03/11 01:42:33;;;;;;;22.73;12.18;;;7.20;99.90;;;;;;5053722;28;20021;-81
2023/03/11 01:44:58;;;;;;;19.67;11.80;;;7.20;99.90;;;;;;5053821;28;20021;-81
2023/03/11 01:47:37;;;;;;;16.45;10.73;;;7.30;99.90;;;;;;5053187;28;20057;-80
2023/03/11 01:50:07;;;;;;;21.33;12.25;;;7.30;99.90;;;;;;5053791;28;20033;-81
2023/03/11 01:52:33;;;;;;;19.63;11.32;;;7.30;99.90;;;;;;5055030;28;20032;-82
2023/03/11 01:54:59;;;;;;;23.92;13.13;;;7.20;99.90;;;;;;5053535;28;20029;-81
2023/03/11 01:57:24;;;;;;;15.25;10.00;;;7.30;99.90;;;;;;5054775;28;20017;-81
2023/03/11 01:59:54;;;;;;;14.55;8.88;;;7.20;99.90;;;;;;5053714;28;20442;-81
2023/03/11 02:02:27;;;;;;;10.43;6.35;;;7.20;99.90;;;;;;5055136;28;20025;-79
2023/03/11 02:04:54;;;;;;;10.30;5.97;;;7.30;99.90;;;;;;5054778;28;20454;-80
2023/03/11 02:07:19;;;;;;;7.65;5.63;;;7.30;99.90;;;;;;5054581;28;20549;-79
2023/03/11 02:09:45;;;;;;;7.10;4.75;;;7.30;99.90;;;;;;5053425;28;20017;-79
2023/03/11 02:12:13;;;;;;;9.60;4.85;;;7.30;99.90;;;;;;5053592;28;20024;-79
2023/03/11 02:14:46;;;;;;;7.78;4.35;;;7.30;99.90;;;;;;5054692;28;20088;-79
2023/03/11 02:17:12;;;;;;;7.03;3.90;;;7.30;99.90;;;;;;5053232;28;20063;-80
2023/03/11 02:19:41;;;;;;;6.43;3.90;;;7.30;99.90;;;;;;5053550;28;20025;-80
2023/03/11 02:22:08;;;;;;;6.15;3.33;;;7.30;99.90;;;;;;5054653;28;20036;-80
2023/03/11 02:25:06;;;;;;;4.40;3.55;;;7.30;99.90;;;;;;5053936;28;20049;-81
2023/03/11 02:27:35;;;;;;;4.68;3.00;;;7.30;99.90;;;;;;5052944;28;20042;-80
2023/03/11 02:30:02;;;;;;;5.72;2.80;;;7.30;99.90;;;;;;5054056;28;20023;-81
2023/03/11 02:32:28;;;;;;;4.80;2.97;;;7.30;99.90;;;;;;5054436;28;20032;-79
2023/03/11 02:34:53;;;;;;;3.80;2.35;;;7.30;99.90;;;;;;5053174;28;20029;-80
2023/03/11 02:37:19;;;;;;;2.33;2.10;;;7.30;98.20;;;;;;5052863;28;20159;-79
2023/03/11 02:39:47;;;;;;;3.40;2.33;;;7.30;94.90;;;;;;5052836;28;20040;-81
2023/03/11 02:42:25;;;;;;;4.53;2.13;;;7.30;94.70;;;;;;5053980;28;20024;-81
2023/03/11 02:45:12;;;;;;;4.68;2.13;;;7.30;91.50;;;;;;5053076;28;20021;-81
2023/03/11 02:47:39;;;;;;;2.90;2.13;;;7.30;91.50;;;;;;5053706;28;20048;-82
2023/03/11 02:50:08;;;;;;;4.13;1.95;;;7.30;90.90;;;;;;5052431;28;20036;-83
2023/03/11 02:52:34;;;;;;;3.33;2.28;;;7.30;91.60;;;;;;5053575;28;20083;-82
2023/03/11 02:55:01;;;;;;;3.83;2.88;;;7.30;93.30;;;;;;5053556;28;20106;-82
2023/03/11 02:57:26;;;;;;;5.72;3.55;;;7.30;94.70;;;;;;5052849;28;20025;-82
2023/03/11 02:59:52;;;;;;;3.80;3.03;;;7.20;96.70;;;;;;5053422;28;20032;-79
2023/03/11 03:02:18;;;;;;;4.10;2.90;;;7.20;97.70;;;;;;5053674;28;20079;-79
2023/03/11 03:04:44;;;;;;;4.78;3.03;;;7.20;98.90;;;;;;5053626;28;20028;-79
2023/03/11 03:07:09;;;;;;;5.93;3.05;;;7.10;99.30;;;;;;5053365;28;20099;-80
2023/03/11 03:09:36;;;;;;;4.45;2.72;;;7.10;99.50;;;;;;5053966;28;20025;-80
2023/03/11 03:12:02;;;;;;;5.75;2.95;;;7.10;99.90;;;;;;5053509;28;20021;-81
2023/03/11 03:14:28;;;;;;;7.15;3.33;;;7.00;99.90;;;;;;5052123;28;20040;-80
2023/03/11 03:16:54;;;;;;;5.13;3.70;;;7.00;99.60;;;;;;5052026;28;20021;-80
2023/03/11 03:19:19;;;;;;;7.75;3.38;;;7.00;99.90;;;;;;5053347;28;20017;-80
2023/03/11 03:21:45;;;;;;;4.90;2.70;;;6.90;99.80;;;;;;5053655;28;20031;-80
2023/03/11 03:24:10;;;;;;;8.57;3.63;;;6.90;99.00;;;;;;5053236;28;20373;-82
2023/03/11 03:26:36;;;;;;;2.85;2.22;;;6.90;98.00;;;;;;5051947;28;20017;-81
2023/03/11 03:29:03;;;;;;;7.60;3.10;;;6.80;97.40;;;;;;5051889;28;20094;-81
2023/03/11 03:31:28;;;;;;;7.05;2.85;;;6.80;99.00;;;;;;5053387;28;20075;-81
2023/03/11 03:33:54;;;;;;;6.97;3.67;;;6.70;99.90;;;;;;5052186;28;20071;-81
2023/03/11 03:36:19;;;;;;;8.32;4.22;;;6.60;99.90;;;;;;5051681;28;20019;-80
2023/03/11 03:38:45;;;;;;;5.00;2.97;;;6.50;99.90;;;;;;5051928;28;20072;-80
2023/03/11 03:41:14;;;;;;;9.63;4.10;;;6.40;99.90;;;;;;5053433;28;20021;-79
2023/03/11 03:43:40;;;;;;;4.88;2.63;;;6.30;99.90;;;;;;5052167;28;20025;-79
2023/03/11 03:46:06;;;;;;;7.47;3.33;;;6.10;99.90;;;;;;5051763;28;20028;-79
2023/03/11 03:48:31;;;;;;;7.22;3.55;;;6.00;99.90;;;;;;5052795;28;20053;-78
2023/03/11 03:51:06;;;;;;;5.22;3.20;;;6.00;99.90;;;;;;5052970;28;20025;-80
2023/03/11 03:53:33;;;;;;;4.22;2.80;;;5.90;99.90;;;;;;5053029;28;20036;-80
2023/03/11 03:56:11;;;;;;;7.53;3.40;;;5.70;99.90;;;;;;5053189;28;20018;-79
2023/03/11 03:58:37;;;;;;;3.85;2.83;;;5.70;99.90;;;;;;5051786;28;20055;-79
2023/03/11 04:01:03;;;;;;;5.32;2.63;;;5.70;99.90;;;;;;5051693;28;20155;-78
2023/03/11 04:03:29;;;;;;;10.00;4.20;;;5.70;99.90;;;;;;5052951;28;20371;-79
2023/03/11 04:06:09;;;;;;;6.97;3.95;;;5.60;99.90;;;;;;5051691;28;20021;-81
2023/03/11 04:08:35;;;;;;;7.13;3.33;;;5.50;99.90;;;;;;5052286;28;20050;-79
2023/03/11 04:11:01;;;;;;;5.32;3.00;;;5.60;99.90;;;;;;5055622;28;20044;-79
2023/03/11 04:13:27;;;;;;;3.78;3.10;;;5.50;99.90;;;;;;5055546;28;20025;-80
2023/03/11 04:15:52;;;;;;;4.68;2.88;;;5.50;99.90;;;;;;5055918;28;20049;-80
2023/03/11 04:18:18;;;;;;;7.43;2.97;;;5.50;99.90;;;;;;5055469;28;20021;-80
2023/03/11 04:20:43;;;;;;;4.72;3.53;;;5.40;99.90;;;;;;5055696;28;20021;-81
2023/03/11 04:23:09;;;;;;;6.72;3.25;;;5.40;99.90;;;;;;5055274;28;20111;-80
2023/03/11 04:25:35;;;;;;;9.85;4.78;;;5.30;99.90;;;;;;5055117;28;20386;-80
2023/03/11 04:28:00;;;;;;;4.13;2.60;;;5.30;99.90;;;;;;5055221;28;20040;-81
2023/03/11 04:30:26;;;;;;;5.68;3.15;;;5.20;99.90;;;;;;5055055;28;20021;-81
2023/03/11 04:32:51;;;;;;;5.85;3.70;;;5.10;99.90;;;;;;5055492;28;20029;-79
2023/03/11 04:35:17;;;;;;;3.60;3.25;;;5.10;99.90;;;;;;5056501;28;20405;-80
2023/03/11 04:37:42;;;;;;;8.88;4.43;;;5.10;99.90;;;;;;5056386;28;20155;-81
2023/03/11 04:40:10;;;;;;;8.13;4.53;;;5.10;99.90;;;;;;5056469;28;20056;-79
2023/03/11 04:42:35;;;;;;;9.70;4.70;;;5.10;99.90;;;;;;5054997;28;20099;-79
2023/03/11 04:45:01;;;;;;;7.15;4.15;;;5.10;99.90;;;;;;5054909;28;20064;-81
2023/03/11 04:47:27;;;;;;;7.47;4.72;;;5.00;99.90;;;;;;5055850;28;20053;-81
2023/03/11 04:49:54;;;;;;;10.38;5.40;;;5.00;99.90;;;;;;5056278;28;20173;-81
2023/03/11 04:52:20;;;;;;;8.48;3.92;;;5.00;99.90;;;;;;5056114;28;20031;-82
2023/03/11 04:54:46;;;;;;;5.47;3.40;;;4.90;99.90;;;;;;5054746;28;20104;-82
2023/03/11 04:57:12;;;;;;;5.57;3.60;;;4.90;99.90;;;;;;5054949;28;20060;-82
2023/03/11 04:59:37;;;;;;;6.85;3.97;;;4.90;99.90;;;;;;5056137;28;20021;-80
2023/03/11 05:02:03;;;;;;;5.80;4.22;;;4.80;99.90;;;;;;5054983;28;20031;-82
2023/03/11 05:04:28;;;;;;;5.75;3.95;;;4.70;99.90;;;;;;5054547;28;20040;-80
2023/03/11 05:06:54;;;;;;;6.25;3.80;;;4.70;99.90;;;;;;5054752;28;20352;-80
2023/03/11 05:09:20;;;;;;;2.95;2.75;;;4.60;99.90;;;;;;5055745;28;20025;-80
2023/03/11 05:11:45;;;;;;;4.68;3.40;;;4.50;99.90;;;;;;5054378;28;20021;-80
2023/03/11 05:14:11;;;;;;;8.00;4.20;;;4.40;99.90;;;;;;5054401;28;20108;-82
2023/03/11 05:16:37;;;;;;;18.67;7.18;;;4.30;99.90;;;;;;5055916;28;20021;-82
2023/03/11 05:19:29;;;;;;;109.38;42.15;;;4.20;99.90;;;;;;5054521;28;20032;-82
2023/03/11 05:21:51;;;;;;;18.50;9.95;;;4.20;99.90;;;;;;5055397;28;20056;-81
2023/03/11 05:24:17;;;;;;;131.93;50.28;;;4.00;99.90;;;;;;5054585;28;20029;-82
2023/03/11 05:26:43;;;;;;;51.75;20.67;;;4.00;99.90;;;;;;5054452;28;20474;-79
2023/03/11 05:29:08;;;;;;;165.85;60.33;;;4.00;99.90;;;;;;5055356;28;20099;-79
2023/03/11 05:31:34;;;;;;;245.70;84.40;;;3.90;99.90;;;;;;5054441;28;20030;-78
2023/03/11 05:33:59;;;;;;;124.03;45.42;;;3.90;99.90;;;;;;5055317;28;20475;-80
2023/03/11 05:36:25;;;;;;;65.10;18.85;;;3.90;99.90;;;;;;5055288;28;20500;-79
2023/03/11 05:38:52;;;;;;;37.75;14.63;;;3.70;99.90;;;;;;5055251;28;20048;-80
2023/03/11 05:41:17;;;;;;;62.10;27.63;;;3.70;99.90;;;;;;5053795;28;20047;-78
2023/03/11 05:43:43;;;;;;;61.72;25.58;;;3.70;99.90;;;;;;5055470;28;20143;-79
2023/03/11 05:46:10;;;;;;;77.20;25.85;;;3.70;99.90;;;;;;5054917;28;20052;-80
2023/03/11 05:48:35;;;;;;;21.40;8.13;;;3.70;99.90;;;;;;5055060;28;20056;-80
2023/03/11 05:51:06;;;;;;;29.58;10.65;;;3.60;99.90;;;;;;5055262;28;20408;-78
2023/03/11 05:53:32;;;;;;;22.75;12.05;;;3.50;99.90;;;;;;5053813;28;20029;-79
2023/03/11 05:55:59;;;;;;;41.38;19.60;;;3.40;99.90;;;;;;5054849;28;20025;-77
2023/03/11 05:58:25;;;;;;;10.55;5.47;;;3.40;99.90;;;;;;5036326;28;20022;-79
2023/03/11 06:00:51;;;;;;;13.15;6.70;;;3.40;99.90;;;;;;5033781;28;20010;-76
2023/03/11 06:03:17;;;;;;;13.88;6.85;;;3.30;99.90;;;;;;5034912;28;20426;-80
2023/03/11 06:05:50;;;;;;;17.63;10.18;;;3.30;99.90;;;;;;5035992;28;20104;-80
2023/03/11 06:08:16;;;;;;;34.92;21.52;;;3.30;99.90;;;;;;5043873;28;20033;-80
2023/03/11 06:10:42;;;;;;;37.28;16.17;;;3.30;99.90;;;;;;5042908;28;20018;-80
2023/03/11 06:13:08;;;;;;;22.65;10.93;;;3.20;99.90;;;;;;5043687;28;20028;-79
2023/03/11 06:15:35;;;;;;;29.52;13.02;;;3.20;99.90;;;;;;5047941;28;20032;-78
2023/03/11 06:18:01;;;;;;;20.83;10.18;;;3.10;99.90;;;;;;5047253;28;20096;-79
2023/03/11 06:20:27;;;;;;;52.05;22.90;;;2.90;99.90;;;;;;5045746;28;20107;-79
2023/03/11 06:22:53;;;;;;;59.20;26.92;;;2.70;99.90;;;;;;5054578;28;20569;-80
2023/03/11 06:25:18;;;;;;;54.17;22.80;;;2.60;99.90;;;;;;5054155;28;20028;-81
2023/03/11 06:27:50;;;;;;;81.57;35.15;;;2.50;99.90;;;;;;5052675;28;20119;-79
2023/03/11 06:30:16;;;;;;;70.82;29.05;;;2.50;99.90;;;;;;5054192;28;20017;-77
2023/03/11 06:32:47;;;;;;;107.03;41.67;;;2.20;99.90;;;;;;5053090;28;20035;-78
2023/03/11 06:35:13;;;;;;;22.25;8.95;;;2.10;99.90;;;;;;5052427;28;20035;-80
2023/03/11 06:37:39;;;;;;;122.88;47.63;;;2.00;99.90;;;;;;5050525;28;20389;-80
2023/03/11 06:40:07;;;;;;;8.93;5.53;;;2.00;99.90;;;;;;5047768;28;20035;-80
2023/03/11 06:42:33;;;;;;;10.32;5.43;;;2.00;99.90;;;;;;5042498;28;20021;-81
2023/03/11 06:44:59;;;;;;;27.30;13.63;;;1.90;99.90;;;;;;5041297;28;20024;-80
2023/03/11 06:47:24;;;;;;;19.17;10.77;;;1.90;99.90;;;;;;5041986;28;20116;-80
2023/03/11 06:49:51;;;;;;;8.98;6.53;;;1.90;99.90;;;;;;5042777;28;20092;-80
2023/03/11 06:52:17;;;;;;;17.85;8.50;;;1.80;99.90;;;;;;5041089;28;20032;-81
2023/03/11 06:54:43;;;;;;;18.10;9.10;;;1.80;99.90;;;;;;5038382;28;20017;-81
2023/03/11 06:57:09;;;;;;;10.85;7.28;;;1.70;99.90;;;;;;5042020;28;20029;-81
2023/03/11 06:59:35;;;;;;;28.85;19.63;;;1.70;99.90;;;;;;5039941;28;20411;-80
2023/03/11 07:02:02;;;;;;;10.40;7.68;;;1.70;99.90;;;;;;5043639;28;20108;-81
2023/03/11 07:04:28;;;;;;;7.13;5.30;;;1.70;99.90;;;;;;5040413;28;20606;-79
2023/03/11 07:06:54;;;;;;;4.75;4.15;;;1.60;99.90;;;;;;5041647;28;20436;-80
2023/03/11 07:09:21;;;;;;;39.47;16.98;;;1.70;99.90;;;;;;5042648;28;20029;-80
2023/03/11 07:11:47;;;;;;;106.53;44.05;;;1.60;99.90;;;;;;5040965;28;20102;-80
2023/03/11 07:14:13;;;;;;;17.15;7.85;;;1.70;99.90;;;;;;5042471;28;20083;-82
2023/03/11 07:16:39;;;;;;;86.80;38.05;;;1.60;99.90;;;;;;5041456;28;20472;-80
2023/03/11 07:19:05;;;;;;;25.48;10.57;;;1.60;99.90;;;;;;5042667;28;20052;-81
2023/03/11 07:21:31;;;;;;;17.63;7.00;;;1.40;99.90;;;;;;5040993;28;20459;-76
2023/03/11 07:23:59;;;;;;;43.50;15.32;;;1.40;99.90;;;;;;5042939;28;20017;-80
2023/03/11 07:26:26;;;;;;;124.70;49.75;;;1.40;99.90;;;;;;5040695;28;20482;-80
2023/03/11 07:28:54;;;;;;;96.00;43.95;;;1.30;99.90;;;;;;5039819;28;20056;-80
2023/03/11 07:31:22;;;;;;;116.10;56.20;;;1.30;99.90;;;;;;5042248;28;20020;-83
2023/03/11 07:33:48;;;;;;;49.45;22.67;;;1.20;99.90;;;;;;5042776;28;20029;-80
2023/03/11 07:36:16;;;;;;;47.38;19.83;;;1.20;99.90;;;;;;5031778;28;20479;-82
2023/03/11 07:38:42;;;;;;;51.80;24.23;;;1.10;99.90;;;;;;5037834;28;20037;-81
2023/03/11 07:41:10;;;;;;;55.70;23.40;;;1.10;99.90;;;;;;5032930;28;20029;-81
2023/03/11 07:43:36;;;;;;;122.18;42.35;;;1.00;99.90;;;;;;5046642;28;20111;-83
2023/03/11 07:46:10;;;;;;;124.80;49.15;;;1.10;99.90;;;;;;5045601;28;20032;-81
2023/03/11 07:48:37;;;;;;;65.53;23.35;;;1.10;99.90;;;;;;5046263;28;20061;-80
2023/03/11 07:51:05;;;;;;;79.35;28.48;;;1.10;99.90;;;;;;5052712;28;20025;-80
2023/03/11 07:53:31;;;;;;;101.97;44.10;;;1.10;99.90;;;;;;5053085;28;20029;-80
2023/03/11 07:55:58;;;;;;;326.63;112.43;;;1.00;99.90;;;;;;5052848;28;20052;-81
2023/03/11 07:58:24;;;;;;;69.70;21.35;;;1.00;99.90;;;;;;5051706;28;20032;-80
2023/03/11 08:00:50;;;;;;;57.63;21.45;;;0.90;99.90;;;;;;5052110;28;20029;-77
2023/03/11 08:03:16;;;;;;;67.85;28.42;;;0.90;99.90;;;;;;5051486;28;20021;-79
2023/03/11 08:05:42;;;;;;;106.35;38.67;;;0.90;99.90;;;;;;5051346;28;20021;-78
2023/03/11 08:08:08;;;;;;;132.85;53.47;;;0.90;99.90;;;;;;5050363;28;20119;-81
2023/03/11 08:10:37;;;;;;;212.35;70.35;;;0.90;99.90;;;;;;5052388;28;20052;-81
2023/03/11 08:13:03;;;;;;;50.63;21.13;;;0.80;99.90;;;;;;5051215;28;20069;-81
2023/03/11 08:15:29;;;;;;;81.68;29.60;;;0.80;99.90;;;;;;5052191;28;20064;-81
2023/03/11 08:17:55;;;;;;;100.75;35.45;;;0.80;99.90;;;;;;5034450;28;20055;-81
2023/03/11 08:20:20;;;;;;;71.82;24.30;;;0.80;99.90;;;;;;5050213;28;20025;-80
2023/03/11 08:22:46;;;;;;;82.25;35.83;;;0.80;99.90;;;;;;5042077;28;20025;-77
2023/03/11 08:25:12;;;;;;;51.25;23.48;;;0.90;99.90;;;;;;5052410;28;20056;-79
2023/03/11 08:27:37;;;;;;;57.42;21.70;;;0.90;99.90;;;;;;5052180;28;20059;-79
2023/03/11 08:30:04;;;;;;;55.03;20.92;;;0.80;99.90;;;;;;5051187;28;20092;-82
2023/03/11 08:32:30;;;;;;;114.57;38.50;;;0.90;99.90;;;;;;5051987;28;20064;-82
2023/03/11 08:34:57;;;;;;;29.90;16.02;;;0.90;99.90;;;;;;5050887;28;20048;-82
2023/03/11 08:37:22;;;;;;;49.97;20.67;;;0.90;99.90;;;;;;5052115;28;20025;-82
2023/03/11 08:39:48;;;;;;;149.95;52.58;;;0.80;99.90;;;;;;5052271;28;20021;-83
2023/03/11 08:42:15;;;;;;;207.80;69.72;;;0.80;99.90;;;;;;5050991;28;20083;-82
2023/03/11 08:44:41;;;;;;;132.55;39.88;;;0.80;99.90;;;;;;5052275;28;20075;-82
2023/03/11 08:47:07;;;;;;;48.42;19.25;;;0.70;99.90;;;;;;5051006;28;20080;-79
2023/03/11 08:49:33;;;;;;;17.65;9.95;;;0.80;99.90;;;;;;5034560;28;20026;-79
2023/03/11 08:52:00;;;;;;;27.92;13.98;;;0.70;99.90;;;;;;5031085;28;20021;-80
2023/03/11 08:54:26;;;;;;;51.67;22.50;;;0.80;99.90;;;;;;5048965;28;20031;-80
2023/03/11 08:56:52;;;;;;;32.92;17.85;;;0.80;99.90;;;;;;5055088;28;20029;-79
2023/03/11 08:59:17;;;;;;;157.70;51.50;;;0.90;99.90;;;;;;5053785;28;20053;-79
2023/03/11 09:01:43;;;;;;;72.63;29.70;;;0.90;99.90;;;;;;5051887;28;20450;-79
2023/03/11 09:04:08;;;;;;;52.30;22.80;;;0.90;99.90;;;;;;5053742;28;20086;-79
2023/03/11 09:06:34;;;;;;;200.50;55.47;;;0.90;99.90;;;;;;5053742;28;20076;-79
2023/03/11 09:08:59;;;;;;;45.63;20.52;;;0.90;99.90;;;;;;5053990;28;20128;-79
2023/03/11 09:11:25;;;;;;;89.18;37.25;;;0.90;99.90;;;;;;5053828;28;20032;-79
2023/03/11 09:13:51;;;;;;;40.58;18.23;;;1.00;99.90;;;;;;5054037;28;20501;-79
2023/03/11 09:16:20;;;;;;;61.47;23.73;;;1.00;99.90;;;;;;5054815;28;20096;-79
2023/03/11 09:18:47;;;;;;;62.17;25.88;;;1.00;99.90;;;;;;5055295;28;20025;-78
2023/03/11 09:21:12;;;;;;;58.83;24.73;;;1.10;99.90;;;;;;5053968;28;20025;-78
2023/03/11 09:23:39;;;;;;;56.88;19.02;;;1.10;99.90;;;;;;5054077;28;20108;-78
2023/03/11 09:26:05;;;;;;;37.00;11.93;;;1.10;99.90;;;;;;5055293;28;20036;-79
2023/03/11 09:28:31;;;;;;;50.08;17.33;;;1.00;99.90;;;;;;5054267;28;20091;-78
2023/03/11 09:30:57;;;;;;;86.85;26.48;;;0.90;99.90;;;;;;5053219;28;20418;-78
2023/03/11 09:33:23;;;;;;;22.30;11.10;;;0.90;99.90;;;;;;5053885;28;20032;-79
2023/03/11 09:35:48;;;;;;;11.50;6.57;;;0.80;99.90;;;;;;5053775;28;20035;-78
2023/03/11 09:38:14;;;;;;;16.83;8.50;;;0.80;99.90;;;;;;5037152;28;20024;-79
2023/03/11 09:41:36;;;;;;;22.00;10.60;;;0.70;99.90;;;;;;5053613;28;20021;-78
2023/03/11 09:44:09;;;;;;;22.38;11.63;;;0.70;99.90;;;;;;5029718;28;20740;-78
2023/03/11 09:46:50;;;;;;;8.90;6.50;;;0.70;99.90;;;;;;5029398;28;20105;-79
2023/03/11 09:49:34;;;;;;;18.08;9.48;;;0.60;99.90;;;;;;5040684;28;20048;-79
2023/03/11 09:52:43;;;;;;;13.77;8.10;;;0.60;99.90;;;;;;5044978;28;20040;-78
2023/03/11 09:55:33;;;;;;;15.32;9.02;;;0.60;99.90;;;;;;5050374;28;20078;-78
2023/03/11 09:58:03;;;;;;;37.63;14.88;;;0.50;99.90;;;;;;5045737;28;20025;-80
2023/03/11 10:00:30;;;;;;;26.20;13.30;;;0.50;99.90;;;;;;5040423;28;20020;-81
2023/03/11 10:02:57;;;;;;;29.77;14.38;;;0.50;99.90;;;;;;5041241;28;21042;-79
2023/03/11 10:05:26;;;;;;;22.27;11.95;;;0.50;99.90;;;;;;5041911;28;20017;-79
2023/03/11 10:08:13;;;;;;;30.10;14.93;;;0.40;99.90;;;;;;5037205;28;20029;-79
2023/03/11 10:10:48;;;;;;;30.33;13.57;;;0.40;99.90;;;;;;5032481;28;20105;-79
2023/03/11 10:13:33;;;;;;;52.58;22.35;;;0.30;99.90;;;;;;5036949;28;20536;-79
2023/03/11 10:16:11;;;;;;;32.88;15.38;;;0.30;99.90;;;;;;5052376;28;20117;-79
2023/03/11 10:19:21;;;;;;;36.70;16.88;;;0.30;99.90;;;;;;5054225;28;20032;-79
2023/03/11 10:22:25;;;;;;;33.53;16.77;;;0.30;99.90;;;;;;5049597;28;20041;-79
2023/03/11 10:25:34;;;;;;;30.23;14.13;;;0.30;99.90;;;;;;5053603;28;20029;-80
2023/03/11 10:28:05;;;;;;;53.28;21.98;;;0.30;99.90;;;;;;5032066;28;20446;-80
2023/03/11 10:30:35;;;;;;;30.02;13.30;;;0.30;99.90;;;;;;5047736;28;20083;-80
2023/03/11 10:33:25;;;;;;;23.70;12.85;;;0.30;99.90;;;;;;5054051;28;20013;-80
2023/03/11 10:35:53;;;;;;;26.25;11.57;;;0.30;99.90;;;;;;5052709;28;20037;-80
2023/03/11 10:38:24;;;;;;;31.40;15.82;;;0.30;99.90;;;;;;5053815;28;20025;-80
2023/03/11 10:40:55;;;;;;;30.50;14.98;;;0.30;99.90;;;;;;5053752;28;20028;-80
2023/03/11 10:43:43;;;;;;;67.18;28.42;;;0.20;99.90;;;;;;5036288;28;20483;-80
2023/03/11 10:46:25;;;;;;;127.10;48.83;;;0.30;99.90;;;;;;5053691;28;20041;-79
2023/03/11 10:48:51;;;;;;;46.55;20.33;;;0.30;99.90;;;;;;5032364;28;20068;-79
2023/03/11 10:51:21;;;;;;;30.55;14.05;;;0.20;99.90;;;;;;5032487;28;20467;-80
2023/03/11 10:53:54;;;;;;;19.75;9.93;;;0.20;99.90;;;;;;5033734;28;20108;-80
2023/03/11 10:56:25;;;;;;;;;;;0.20;99.90;;;;;;5032787;28;20483;-80
2023/03/11 10:58:51;;;;;;;24.73;12.43;;;0.30;99.90;;;;;;5032978;28;19913;-80
2023/03/11 11:01:17;;;;;;;23.30;12.15;;;0.30;99.90;;;;;;5032218;28;20076;-81
2023/03/11 11:03:48;;;;;;;31.92;16.02;;;0.30;99.90;;;;;;5033562;28;20037;-80
2023/03/11 11:06:28;;;;;;;27.88;13.82;;;0.20;99.90;;;;;;5032247;28;20152;-80
2023/03/11 11:09:18;;;;;;;37.53;17.08;;;0.30;99.90;;;;;;5033203;28;20492;-80
2023/03/11 11:12:16;;;;;;;31.65;13.27;;;0.40;99.90;;;;;;5033191;28;20033;-80
2023/03/11 11:14:51;;;;;;;41.15;18.67;;;0.30;99.90;;;;;;5031593;28;20025;-79
2023/03/11 11:17:28;;;;;;;37.97;16.17;;;0.40;99.90;;;;;;5031523;28;20049;-80
2023/03/11 11:19:56;;;;;;;28.58;12.55;;;0.50;99.90;;;;;;5032034;28;20029;-80
2023/03/11 11:22:24;;;;;;;57.15;19.85;;;0.50;99.90;;;;;;5031902;28;20430;-80
2023/03/11 11:24:52;;;;;;;32.03;13.40;;;0.50;99.90;;;;;;5031990;28;20021;-80
2023/03/11 11:27:22;;;;;;;58.50;21.55;;;0.60;99.90;;;;;;5031642;28;20032;-81
2023/03/11 11:30:08;;;;;;;48.72;15.75;;;0.60;99.90;;;;;;5031258;28;20501;-80
2023/03/11 11:32:35;;;;;;;117.88;36.78;;;0.60;99.90;;;;;;5031753;28;20029;-80
2023/03/11 11:35:05;;;;;;;71.15;23.23;;;0.50;99.90;;;;;;5031685;28;20109;-80
2023/03/11 11:37:34;;;;;;;172.10;58.72;;;0.50;99.90;;;;;;5031792;28;20026;-80
2023/03/11 11:40:24;;;;;;;43.88;15.60;;;0.50;99.90;;;;;;5031721;28;20017;-80
2023/03/11 11:42:53;;;;;;;64.35;20.92;;;0.50;99.90;;;;;;5032967;28;20517;-80
2023/03/11 11:45:44;;;;;;;17.30;7.75;;;0.50;99.90;;;;;;5031660;28;20033;-80
2023/03/11 11:48:32;;;;;;;7.03;4.75;;;0.40;99.90;;;;;;5045579;28;20049;-80
2023/03/11 11:51:07;;;;;;;55.63;17.90;;;0.30;99.90;;;;;;5051391;28;20394;-80
2023/03/11 11:53:54;;;;;;;71.88;23.05;;;0.30;99.90;;;;;;5052775;28;20021;-80
2023/03/11 11:56:23;;;;;;;41.80;14.90;;;0.20;99.90;;;;;;5053177;28;20025;-80
2023/03/11 11:58:49;;;;;;;51.47;17.48;;;0.20;99.90;;;;;;5050759;28;20021;-79
2023/03/11 12:01:20;;;;;;;31.70;14.00;;;0.20;99.90;;;;;;5051032;28;20029;-79
2023/03/11 12:04:04;;;;;;;22.38;9.00;;;0.10;99.90;;;;;;5052025;28;20029;-79
2023/03/11 12:06:38;;;;;;;28.80;12.10;;;0.20;99.90;;;;;;5071357;28;20519;-80
2023/03/11 12:09:40;;;;;;;12.88;5.63;;;0.10;99.90;;;;;;5072295;28;20040;-80
2023/03/11 12:12:38;;;;;;;8.75;5.13;;;0.10;99.90;;;;;;5071699;28;20379;-80
2023/03/11 12:15:32;;;;;;;7.55;5.10;;;0.10;99.90;;;;;;5069893;28;20462;-80
2023/03/11 12:18:05;;;;;;;10.52;5.78;;;-0.10;99.90;;;;;;5069133;28;20029;-79
2023/03/11 12:20:44;;;;;;;11.25;6.07;;;0.00;99.90;;;;;;5051312;28;20029;-80
2023/03/11 12:23:35;;;;;;;40.10;15.35;;;-0.10;99.90;;;;;;5051378;28;20048;-80
2023/03/11 12:26:15;;;;;;;42.13;16.70;;;-0.10;99.90;;;;;;5050082;28;20134;-80
2023/03/11 12:28:47;;;;;;;21.77;10.43;;;0.00;99.90;;;;;;5034203;28;20045;-80
2023/03/11 12:31:16;;;;;;;26.17;9.90;;;-0.10;99.90;;;;;;5054098;28;20481;-82
2023/03/11 12:33:50;;;;;;;25.73;10.88;;;0.00;99.90;;;;;;5054388;28;20025;-80
2023/03/11 12:36:22;;;;;;;10.50;6.97;;;-0.10;99.90;;;;;;5053076;28;20025;-79
2023/03/11 12:38:49;;;;;;;15.52;8.68;;;-0.20;99.90;;;;;;5053051;28;20170;-77
2023/03/11 12:41:32;;;;;;;22.75;10.30;;;-0.20;99.90;;;;;;5051581;28;20095;-76
2023/03/11 12:43:59;;;;;;;13.10;6.18;;;-0.20;99.90;;;;;;5052276;28;20020;-77
2023/03/11 12:47:05;;;;;;;9.25;6.10;;;-0.20;99.90;;;;;;5051790;28;20481;-77
2023/03/11 12:49:36;;;;;;;9.75;5.95;;;-0.20;99.90;;;;;;5053734;28;20179;-79
2023/03/11 12:52:11;;;;;;;12.70;5.72;;;-0.20;99.90;;;;;;5055183;28;20107;-81
2023/03/11 12:54:39;;;;;;;27.02;11.57;;;-0.20;99.90;;;;;;5055376;28;20029;-77
2023/03/11 12:57:17;;;;;;;54.15;18.33;;;-0.10;99.90;;;;;;5055314;28;20493;-77